createdAt,value
2023-04-05T00:01:37.318Z,8.73
2023-04-05T00:04:08.079Z,8.88
2023-04-05T00:06:40.039Z,9.00
2023-04-05T00:09:11.956Z,8.38
2023-04-05T00:14:28.145Z,8.38
2023-04-05T00:16:57.896Z,8.05
2023-04-05T00:19:30.080Z,8.45
2023-04-05T00:22:00.320Z,8.98
2023-04-05T00:24:29.663Z,7.07
2023-04-05T00:27:00.554Z,8.30
2023-04-05T00:29:39.216Z,8.45
2023-04-05T00:32:06.151Z,8.68
2023-04-05T00:34:38.433Z,7.82
2023-04-05T00:37:07.927Z,8.77
2023-04-05T00:39:34.557Z,8.05
2023-04-05T00:42:09.550Z,7.53
2023-04-05T00:44:41.659Z,7.90
2023-04-05T00:47:08.379Z,7.68
2023-04-05T00:49:38.949Z,7.57
2023-04-05T00:52:05.679Z,7.63
2023-04-05T00:54:38.062Z,8.05
2023-04-05T00:57:07.058Z,7.97
2023-04-05T00:59:40.072Z,7.88
2023-04-05T01:02:17.997Z,7.88
2023-04-05T01:04:50.461Z,7.82
2023-04-05T01:07:24.101Z,8.20
2023-04-05T01:09:54.458Z,7.55
2023-04-05T01:12:39.420Z,7.33
2023-04-05T01:15:12.863Z,7.93
2023-04-05T01:17:42.387Z,7.13
2023-04-05T01:20:14.366Z,7.47
2023-04-05T01:26:01.012Z,7.10
2023-04-05T01:28:58.854Z,7.38
2023-04-05T01:31:47.861Z,6.97
2023-04-05T01:34:35.087Z,7.18
2023-04-05T01:37:07.100Z,6.95
2023-04-05T01:39:34.162Z,7.40
2023-04-05T01:42:05.425Z,7.60
2023-04-05T01:44:37.408Z,7.30
2023-04-05T01:47:07.652Z,6.93
2023-04-05T01:49:39.639Z,6.78
2023-04-05T01:52:25.258Z,6.75
2023-04-05T01:54:53.655Z,6.85
2023-04-05T01:57:20.537Z,7.00
2023-04-05T01:59:47.805Z,7.07
2023-04-05T02:02:25.835Z,7.00
2023-04-05T02:04:55.398Z,6.55
2023-04-05T02:07:27.339Z,6.68
2023-04-05T02:09:56.412Z,6.45
2023-04-05T02:15:12.787Z,6.50
2023-04-05T02:18:03.888Z,6.78
2023-04-05T02:20:33.962Z,6.30
2023-04-05T02:23:03.527Z,5.97
2023-04-05T02:25:32.043Z,6.53
2023-04-05T02:27:58.680Z,6.38
2023-04-05T02:30:27.568Z,6.45
2023-04-05T02:32:56.462Z,6.53
2023-04-05T02:35:25.371Z,6.82
2023-04-05T02:38:01.546Z,6.18
2023-04-05T02:40:33.559Z,6.40
2023-04-05T02:43:02.581Z,6.20
2023-04-05T02:45:31.911Z,6.07
2023-04-05T02:48:03.561Z,5.75
2023-04-05T02:53:39.739Z,6.05
2023-04-05T02:56:09.389Z,6.43
2023-04-05T02:58:39.229Z,5.90
2023-04-05T03:01:08.680Z,5.78
2023-04-05T03:03:40.329Z,6.38
2023-04-05T03:06:13.512Z,5.50
2023-04-05T03:08:48.718Z,5.97
2023-04-05T03:11:17.770Z,5.78
2023-04-05T03:13:49.482Z,5.57
2023-04-05T03:16:20.429Z,5.60
2023-04-05T03:18:53.560Z,5.78
2023-04-05T03:21:24.936Z,5.82
2023-04-05T03:23:51.578Z,5.35
2023-04-05T03:26:19.096Z,5.38
2023-04-05T03:28:45.791Z,5.82
2023-04-05T03:31:18.354Z,5.97
2023-04-05T03:33:47.330Z,5.90
2023-04-05T03:36:16.778Z,5.50
2023-04-05T03:38:45.854Z,5.18
2023-04-05T03:41:17.246Z,5.25
2023-04-05T03:43:48.880Z,5.95
2023-04-05T03:46:17.945Z,5.82
2023-04-05T03:48:47.734Z,5.15
2023-04-05T03:51:16.744Z,5.00
2023-04-05T03:53:47.169Z,5.15
2023-04-05T03:56:21.909Z,5.30
2023-04-05T03:58:48.647Z,5.55
2023-04-05T04:01:18.416Z,5.00
2023-04-05T04:03:47.709Z,4.80
2023-04-05T04:06:19.207Z,5.55
2023-04-05T04:08:46.402Z,5.15
2023-04-05T04:11:15.906Z,5.20
2023-04-05T04:13:45.228Z,5.43
2023-04-05T04:16:11.864Z,4.90
2023-04-05T04:18:40.729Z,5.30
2023-04-05T04:21:07.492Z,5.30
2023-04-05T04:23:39.283Z,4.90
2023-04-05T04:26:10.501Z,4.90
2023-04-05T04:31:16.949Z,5.15
2023-04-05T04:36:38.099Z,4.80
2023-04-05T04:39:07.255Z,5.03
2023-04-05T04:41:36.056Z,5.00
2023-04-05T04:44:06.135Z,4.63
2023-04-05T04:46:36.556Z,5.15
2023-04-05T04:49:06.005Z,4.80
2023-04-05T04:51:35.528Z,4.75
2023-04-05T04:54:04.761Z,4.97
2023-04-05T04:56:36.746Z,4.50
2023-04-05T04:59:08.151Z,5.00
2023-04-05T05:01:38.111Z,4.72
2023-04-05T05:04:07.160Z,4.85
2023-04-05T05:06:38.785Z,4.55
2023-04-05T05:09:07.726Z,4.75
2023-04-05T05:11:40.578Z,4.60
2023-04-05T05:14:11.982Z,4.75
2023-04-05T05:16:38.740Z,4.45
2023-04-05T05:19:07.719Z,4.57
2023-04-05T05:21:36.492Z,4.68
2023-04-05T05:24:16.580Z,4.40
2023-04-05T05:26:47.904Z,4.60
2023-04-05T05:29:20.438Z,4.53
2023-04-05T05:31:47.196Z,4.80
2023-04-05T05:34:19.449Z,4.18
2023-04-05T05:36:52.514Z,3.40
2023-04-05T05:39:20.616Z,3.20
2023-04-05T05:41:51.164Z,3.40
2023-04-05T05:44:17.952Z,3.80
2023-04-05T05:46:46.966Z,3.75
2023-04-05T05:49:13.870Z,3.67
2023-04-05T05:51:40.813Z,3.83
2023-04-05T05:54:09.591Z,3.75
2023-04-05T05:56:38.564Z,3.42
2023-04-05T05:59:09.905Z,3.70
2023-04-05T06:01:42.823Z,3.50
2023-04-05T06:04:09.961Z,3.53
2023-04-05T06:06:39.084Z,3.65
2023-04-05T06:09:08.014Z,3.80
2023-04-05T06:11:53.217Z,3.40
2023-04-05T06:14:25.718Z,3.38
2023-04-05T06:16:53.632Z,3.63
2023-04-05T06:19:22.621Z,3.50
2023-04-05T06:21:57.517Z,3.53
2023-04-05T06:24:26.478Z,3.50
2023-04-05T06:26:57.246Z,3.55
2023-04-05T06:29:24.078Z,3.70
2023-04-05T06:31:51.162Z,3.78
2023-04-05T06:34:25.382Z,3.35
2023-04-05T06:36:58.750Z,3.83
2023-04-05T06:39:27.744Z,3.50
2023-04-05T06:41:56.612Z,3.47
2023-04-05T06:44:26.280Z,3.40
2023-04-05T06:46:57.751Z,3.28
2023-04-05T06:49:27.219Z,3.35
2023-04-05T06:51:56.544Z,3.30
2023-04-05T06:54:25.865Z,3.15
2023-04-05T06:56:52.598Z,3.10
2023-04-05T06:59:19.838Z,3.22
2023-04-05T07:01:51.203Z,3.33
2023-04-05T07:04:23.415Z,3.30
2023-04-05T07:06:54.341Z,3.00
2023-04-05T07:09:24.702Z,2.97
2023-04-05T07:11:51.537Z,3.27
2023-04-05T07:14:21.076Z,3.13
2023-04-05T07:16:48.661Z,3.20
2023-04-05T07:19:19.161Z,3.30
2023-04-05T07:21:51.042Z,3.50
2023-04-05T07:24:17.738Z,3.00
2023-04-05T07:26:48.161Z,3.22
2023-04-05T07:29:16.961Z,3.50
2023-04-05T07:31:43.863Z,3.30
2023-04-05T07:34:10.477Z,2.97
2023-04-05T07:36:41.995Z,3.40
2023-04-05T07:39:08.667Z,3.35
2023-04-05T07:41:39.541Z,3.38
2023-04-05T07:44:09.327Z,3.85
2023-04-05T07:46:36.200Z,3.50
2023-04-05T07:49:05.129Z,3.42
2023-04-05T07:51:37.489Z,3.53
2023-04-05T07:54:05.725Z,3.10
2023-04-05T07:56:34.831Z,3.70
2023-04-05T07:59:04.500Z,3.47
2023-04-05T08:01:33.494Z,3.60
2023-04-05T08:04:03.468Z,3.47
2023-04-05T08:06:39.814Z,3.55
2023-04-05T08:09:11.922Z,3.47
2023-04-05T08:11:40.046Z,3.42
2023-04-05T08:14:09.898Z,3.30
2023-04-05T08:16:39.302Z,3.55
2023-04-05T08:19:06.283Z,3.10
2023-04-05T08:21:35.285Z,3.20
2023-04-05T08:24:02.356Z,3.25
2023-04-05T08:26:30.996Z,3.35
2023-04-05T08:29:01.025Z,3.55
2023-04-05T08:31:27.744Z,3.75
2023-04-05T08:33:56.616Z,3.17
2023-04-05T08:36:23.288Z,3.60
2023-04-05T08:38:54.650Z,3.33
2023-04-05T08:41:27.277Z,3.72
2023-04-05T08:44:00.342Z,3.17
2023-04-05T08:46:27.270Z,3.13
2023-04-05T08:48:59.019Z,3.28
2023-04-05T08:51:29.650Z,3.38
2023-04-05T08:53:59.000Z,3.33
2023-04-05T08:56:29.815Z,3.10
2023-04-05T08:59:05.014Z,4.10
2023-04-05T09:01:38.275Z,3.53
2023-04-05T09:04:16.861Z,3.60
2023-04-05T09:06:48.293Z,3.50
2023-04-05T09:09:17.771Z,2.92
2023-04-05T09:11:47.535Z,3.53
2023-04-05T09:14:23.487Z,4.10
2023-04-05T09:16:50.432Z,3.03
2023-04-05T09:19:20.561Z,3.28
2023-04-05T09:22:01.390Z,3.45
2023-04-05T09:24:41.534Z,3.75
2023-04-05T09:27:12.856Z,3.45
2023-04-05T09:29:45.020Z,3.00
2023-04-05T09:32:13.990Z,3.10
2023-04-05T09:34:44.195Z,3.13
2023-04-05T09:37:14.756Z,3.35
2023-04-05T09:39:41.644Z,3.40
2023-04-05T09:42:13.364Z,3.17
2023-04-05T09:44:53.437Z,3.35
2023-04-05T09:47:25.098Z,2.85
2023-04-05T09:49:56.341Z,3.40
2023-04-05T09:54:56.584Z,3.45
2023-04-05T09:57:26.705Z,3.17
2023-04-05T09:59:54.443Z,3.20
2023-04-05T10:02:24.901Z,3.00
2023-04-05T10:05:04.479Z,3.30
2023-04-05T10:07:31.975Z,3.75
2023-04-05T10:10:05.644Z,3.50
2023-04-05T10:12:33.106Z,3.30
2023-04-05T10:15:09.727Z,3.08
2023-04-05T10:17:42.037Z,3.40
2023-04-05T10:20:10.766Z,3.30
2023-04-05T10:22:41.683Z,3.25
2023-04-05T10:25:21.843Z,3.22
2023-04-05T10:27:56.424Z,3.42
2023-04-05T10:30:24.645Z,3.22
2023-04-05T10:33:03.115Z,3.17
2023-04-05T10:35:50.897Z,3.10
2023-04-05T10:38:30.534Z,3.05
2023-04-05T10:41:15.300Z,3.25
2023-04-05T10:43:45.929Z,3.40
2023-04-05T10:46:15.404Z,3.10
2023-04-05T10:48:57.383Z,3.35
2023-04-05T10:51:32.375Z,3.10
2023-04-05T10:53:59.239Z,3.00
2023-04-05T10:56:31.433Z,3.10
2023-04-05T10:59:01.633Z,3.20
2023-04-05T11:01:28.624Z,3.50
2023-04-05T11:03:57.481Z,3.25
2023-04-05T11:06:30.664Z,3.00
2023-04-05T11:09:12.585Z,3.22
2023-04-05T11:11:40.531Z,3.35
2023-04-05T11:14:22.799Z,3.28
2023-04-05T11:16:57.795Z,3.22
2023-04-05T11:20:06.076Z,3.40
2023-04-05T11:22:38.293Z,3.15
2023-04-05T11:25:06.084Z,3.38
2023-04-05T11:27:41.230Z,3.35
2023-04-05T11:30:10.661Z,3.45
2023-04-05T11:32:45.901Z,4.38
2023-04-05T11:35:18.220Z,4.70
2023-04-05T11:37:57.864Z,3.45
2023-04-05T11:40:31.653Z,3.53
2023-04-05T11:43:04.862Z,3.88
2023-04-05T11:45:32.614Z,3.58
2023-04-05T11:48:15.436Z,3.80
2023-04-05T11:50:45.580Z,3.50
2023-04-05T11:53:15.701Z,3.90
2023-04-05T11:55:44.162Z,3.72
2023-04-05T11:58:17.400Z,3.30
2023-04-05T12:00:50.133Z,3.50
2023-04-05T12:03:17.340Z,3.58
2023-04-05T12:05:52.701Z,3.22
2023-04-05T12:08:22.238Z,3.60
2023-04-05T12:11:01.349Z,3.78
2023-04-05T12:13:29.553Z,3.55
2023-04-05T12:16:06.317Z,3.63
2023-04-05T12:18:38.939Z,3.50
2023-04-05T12:21:11.353Z,3.60
2023-04-05T12:23:38.486Z,3.60
2023-04-05T12:26:09.462Z,3.22
2023-04-05T12:28:57.279Z,3.40
2023-04-05T12:31:46.769Z,3.28
2023-04-05T12:34:25.733Z,3.47
2023-04-05T12:36:58.730Z,3.80
2023-04-05T12:39:27.993Z,3.80
2023-04-05T12:42:07.708Z,3.70
2023-04-05T12:44:38.204Z,3.67
2023-04-05T12:47:09.318Z,3.67
2023-04-05T12:52:14.473Z,5.93
2023-04-05T12:54:49.722Z,5.72
2023-04-05T12:57:17.067Z,6.30
2023-04-05T12:59:43.732Z,5.57
2023-04-05T13:02:12.626Z,4.80
2023-04-05T13:04:41.586Z,4.53
2023-04-05T13:07:11.380Z,4.57
2023-04-05T13:09:41.745Z,4.90
2023-04-05T13:12:09.310Z,4.77
2023-04-05T13:14:38.428Z,4.80
2023-04-05T13:17:07.410Z,4.60
2023-04-05T13:19:37.368Z,4.40
2023-04-05T13:22:06.560Z,4.57
2023-04-05T13:24:36.228Z,4.35
2023-04-05T13:27:07.873Z,4.90
2023-04-05T13:29:34.582Z,4.82
2023-04-05T13:32:03.715Z,4.10
2023-04-05T13:34:31.603Z,4.38
2023-04-05T13:36:58.363Z,4.32
2023-04-05T13:39:29.643Z,4.50
2023-04-05T13:42:02.130Z,4.95
2023-04-05T13:44:28.728Z,4.90
2023-04-05T13:46:57.594Z,4.40
2023-04-05T13:49:29.052Z,4.25
2023-04-05T13:51:55.810Z,4.20
2023-04-05T13:54:25.644Z,4.00
2023-04-05T13:56:56.419Z,4.47
2023-04-05T13:59:28.342Z,4.20
2023-04-05T14:01:57.362Z,6.18
2023-04-05T14:04:24.324Z,26.35
2023-04-05T14:06:51.098Z,27.65
2023-04-05T14:09:17.745Z,14.88
2023-04-05T14:11:44.443Z,14.25
2023-04-05T14:14:13.093Z,17.73
2023-04-05T14:16:40.043Z,19.65
2023-04-05T14:19:06.675Z,18.98
2023-04-05T14:21:37.256Z,24.80
2023-04-05T14:24:04.095Z,25.30
2023-04-05T14:26:32.897Z,25.42
2023-04-05T14:29:01.790Z,25.58
2023-04-05T14:31:30.755Z,23.23
2023-04-05T14:33:59.737Z,24.52
2023-04-05T14:36:44.959Z,25.35
2023-04-05T14:39:12.220Z,24.05
2023-04-05T14:41:44.090Z,24.60
2023-04-05T14:44:13.950Z,23.77
2023-04-05T14:46:40.766Z,24.48
2023-04-05T14:49:09.727Z,23.10
2023-04-05T14:51:41.057Z,24.60
2023-04-05T14:54:07.831Z,23.25
2023-04-05T14:56:36.694Z,23.58
2023-04-05T14:59:04.263Z,22.17
2023-04-05T15:01:31.961Z,22.00
2023-04-05T15:04:00.954Z,21.77
2023-04-05T15:06:28.773Z,24.33
2023-04-05T15:09:00.521Z,21.23
2023-04-05T15:11:27.584Z,20.35
2023-04-05T15:13:56.584Z,22.58
2023-04-05T15:16:25.176Z,20.40
2023-04-05T15:18:52.232Z,20.25
2023-04-05T15:21:21.182Z,21.45
2023-04-05T15:23:50.829Z,22.25
2023-04-05T15:26:22.069Z,20.60
2023-04-05T15:28:51.483Z,20.60
2023-04-05T15:31:19.231Z,19.42
2023-04-05T15:33:46.274Z,19.90
2023-04-05T15:36:15.117Z,19.88
2023-04-05T15:38:42.175Z,19.67
2023-04-05T15:41:11.941Z,18.95
2023-04-05T15:43:43.616Z,19.38
2023-04-05T15:46:15.913Z,20.02
2023-04-05T15:48:45.420Z,18.67
2023-04-05T15:51:12.452Z,17.10
2023-04-05T15:53:43.819Z,17.15
2023-04-05T15:56:14.554Z,18.08
2023-04-05T15:58:42.212Z,16.58
2023-04-05T16:01:09.424Z,17.35
2023-04-05T16:03:36.821Z,15.73
2023-04-05T16:06:09.406Z,17.05
2023-04-05T16:08:37.002Z,16.70
2023-04-05T16:11:08.876Z,16.80
2023-04-05T16:13:36.063Z,15.88
2023-04-05T16:16:05.417Z,14.75
2023-04-05T16:18:32.221Z,15.35
2023-04-05T16:21:02.586Z,15.48
2023-04-05T16:23:29.570Z,12.17
2023-04-05T16:25:59.730Z,14.85
2023-04-05T16:28:27.609Z,14.35
2023-04-05T16:30:57.445Z,15.63
2023-04-05T16:33:26.287Z,14.13
2023-04-05T16:35:55.169Z,14.55
2023-04-05T16:38:27.327Z,15.35
2023-04-05T16:41:00.185Z,13.52
2023-04-05T16:43:27.225Z,14.93
2023-04-05T16:45:56.384Z,14.77
2023-04-05T16:48:26.946Z,14.73
2023-04-05T16:50:53.666Z,14.70
2023-04-05T16:53:24.817Z,13.45
2023-04-05T16:55:51.821Z,14.43
2023-04-05T16:58:21.265Z,17.13
2023-04-05T17:00:48.631Z,16.52
2023-04-05T17:03:16.560Z,16.05
2023-04-05T17:05:46.901Z,16.15
2023-04-05T17:08:21.075Z,14.85
2023-04-05T17:10:48.600Z,15.65
2023-04-05T17:13:17.852Z,15.43
2023-04-05T17:15:52.135Z,15.82
2023-04-05T17:18:22.140Z,14.98
2023-04-05T17:20:52.394Z,14.77
2023-04-05T17:23:20.787Z,15.45
2023-04-05T17:25:51.359Z,14.38
2023-04-05T17:28:18.322Z,14.13
2023-04-05T17:30:47.218Z,12.98
2023-04-05T17:33:19.784Z,13.13
2023-04-05T17:35:47.928Z,12.15
2023-04-05T17:38:15.485Z,13.20
2023-04-05T17:40:45.341Z,12.77
2023-04-05T17:43:16.556Z,13.02
2023-04-05T17:48:19.293Z,13.82
2023-04-05T17:50:49.971Z,12.95
2023-04-05T17:53:22.785Z,13.30
2023-04-05T17:55:54.486Z,11.43
2023-04-05T17:58:23.086Z,11.75
2023-04-05T18:00:58.080Z,12.80
2023-04-05T18:03:25.281Z,11.95
2023-04-05T18:05:55.842Z,11.43
2023-04-05T18:08:26.451Z,11.93
2023-04-05T18:11:05.082Z,12.00
2023-04-05T18:13:34.556Z,11.60
2023-04-05T18:16:04.789Z,11.32
2023-04-05T18:18:35.296Z,10.98
2023-04-05T18:21:02.666Z,11.10
2023-04-05T18:23:30.052Z,10.57
2023-04-05T18:26:06.904Z,10.90
2023-04-05T18:28:35.793Z,11.13
2023-04-05T18:31:05.218Z,10.98
2023-04-05T18:33:34.378Z,10.32
2023-04-05T18:36:13.832Z,10.95
2023-04-05T18:38:41.269Z,10.52
2023-04-05T18:41:11.321Z,10.15
2023-04-05T18:43:42.663Z,10.23
2023-04-05T18:46:18.495Z,11.27
2023-04-05T18:48:50.209Z,10.23
2023-04-05T18:51:26.671Z,10.85
2023-04-05T18:54:00.626Z,10.82
2023-04-05T18:56:44.755Z,9.93
2023-04-05T18:59:19.207Z,9.35
2023-04-05T19:01:52.193Z,10.18
2023-04-05T19:04:22.280Z,9.65
2023-04-05T19:06:57.137Z,9.67
2023-04-05T19:09:34.306Z,10.05
2023-04-05T19:12:01.989Z,10.32
2023-04-05T19:14:30.692Z,9.65
2023-04-05T19:16:59.406Z,9.27
2023-04-05T19:19:28.853Z,10.50
2023-04-05T19:22:02.727Z,9.77
2023-04-05T19:24:33.782Z,9.57
2023-04-05T19:29:33.047Z,9.52
2023-04-05T19:32:05.748Z,9.00
2023-04-05T19:34:34.722Z,8.45
2023-04-05T19:39:55.469Z,8.88
2023-04-05T19:42:24.939Z,9.00
2023-04-05T19:44:55.062Z,9.43
2023-04-05T19:47:31.333Z,9.38
2023-04-05T19:50:11.388Z,8.65
2023-04-05T19:52:57.066Z,9.18
2023-04-05T19:55:30.413Z,8.93
2023-04-05T19:58:00.653Z,8.65
2023-04-05T20:00:56.374Z,8.95
2023-04-05T20:03:31.916Z,8.50
2023-04-05T20:06:22.097Z,8.77
2023-04-05T20:08:53.788Z,9.00
2023-04-05T20:11:28.767Z,8.20
2023-04-05T20:14:04.528Z,8.35
2023-04-05T20:16:35.945Z,8.50
2023-04-05T20:19:13.486Z,8.63
2023-04-05T20:21:43.877Z,8.75
2023-04-05T20:24:17.455Z,7.30
2023-04-05T20:26:46.372Z,9.40
2023-04-05T20:29:17.290Z,10.00
2023-04-05T20:31:46.258Z,9.43
2023-04-05T20:34:16.451Z,8.88
2023-04-05T20:37:15.876Z,8.70
2023-04-05T20:39:45.394Z,8.15
2023-04-05T20:42:14.653Z,7.93
2023-04-05T20:44:41.467Z,8.68
2023-04-05T20:47:08.275Z,7.18
2023-04-05T20:49:37.534Z,8.02
2023-04-05T20:52:08.902Z,8.02
2023-04-05T20:54:43.074Z,7.85
2023-04-05T20:57:11.127Z,8.63
2023-04-05T20:59:42.106Z,7.38
2023-04-05T21:02:15.677Z,7.60
2023-04-05T21:04:49.820Z,7.63
2023-04-05T21:07:21.841Z,7.25
2023-04-05T21:09:48.662Z,7.15
2023-04-05T21:12:15.539Z,7.82
2023-04-05T21:14:50.139Z,7.50
2023-04-05T21:17:17.144Z,7.32
2023-04-05T21:19:53.353Z,7.00
2023-04-05T21:22:28.960Z,7.60
2023-04-05T21:24:59.070Z,7.25
2023-04-05T21:27:34.414Z,7.43
2023-04-05T21:30:05.219Z,6.72
2023-04-05T21:35:24.211Z,6.60
2023-04-05T21:38:04.232Z,6.60
2023-04-05T21:40:31.430Z,7.18
2023-04-05T21:43:04.637Z,6.70
2023-04-05T21:45:39.979Z,7.35
2023-04-05T21:48:11.529Z,6.78
2023-04-05T21:50:59.725Z,7.10
2023-04-05T21:53:32.784Z,6.57
2023-04-05T21:56:06.003Z,7.10
2023-04-05T21:58:42.115Z,7.10
2023-04-05T22:01:21.047Z,6.15
2023-04-05T22:03:56.592Z,7.32
2023-04-05T22:06:23.360Z,6.50
2023-04-05T22:09:01.026Z,6.38
2023-04-05T22:11:29.756Z,7.05
2023-04-05T22:14:02.367Z,6.63
2023-04-05T22:16:48.126Z,6.60
2023-04-05T22:19:15.666Z,6.85
2023-04-05T22:21:51.326Z,6.60
2023-04-05T22:24:18.224Z,6.63
2023-04-05T22:26:51.885Z,6.80
2023-04-05T22:29:24.473Z,7.03
2023-04-05T22:31:54.372Z,6.40
2023-04-05T22:34:24.367Z,6.78
2023-04-05T22:36:55.146Z,6.03
2023-04-05T22:39:25.614Z,6.38
2023-04-05T22:41:53.759Z,6.50
2023-04-05T22:44:25.690Z,6.65
2023-04-05T22:46:54.852Z,6.40
2023-04-05T22:49:27.008Z,6.20
2023-04-05T22:51:56.635Z,6.22
2023-04-05T22:54:24.074Z,6.45
2023-04-05T22:56:54.740Z,6.25
2023-04-05T22:59:24.956Z,6.40
2023-04-05T23:02:00.484Z,4.82
2023-04-05T23:04:31.251Z,6.60
2023-04-05T23:07:01.148Z,6.03
2023-04-05T23:09:35.097Z,6.18
2023-04-05T23:12:06.245Z,6.10
2023-04-05T23:16:59.504Z,5.93
2023-04-05T23:19:29.062Z,5.90
2023-04-05T23:22:01.118Z,6.18
2023-04-05T23:24:30.159Z,5.65
2023-04-05T23:26:56.985Z,6.18
2023-04-05T23:29:26.508Z,6.50
2023-04-05T23:31:57.695Z,6.05
2023-04-05T23:34:29.744Z,6.15
2023-04-05T23:37:00.160Z,5.88
2023-04-05T23:39:36.321Z,5.63
2023-04-05T23:42:09.891Z,5.72
2023-04-05T23:44:37.462Z,6.05
2023-04-05T23:47:09.426Z,6.18
2023-04-05T23:49:38.345Z,5.88
2023-04-05T23:52:07.624Z,5.88
2023-04-05T23:54:37.312Z,5.60
2023-04-05T23:57:04.043Z,6.28
2023-04-05T23:59:35.699Z,5.93
